createdAt,value
2019-04-25T00:02:42.265Z,9.90
2019-04-25T00:05:31.090Z,9.90
2019-04-25T00:08:19.222Z,9.80
2019-04-25T00:11:07.454Z,9.70
2019-04-25T00:13:55.372Z,9.60
2019-04-25T00:16:45.271Z,9.60
2019-04-25T00:19:33.073Z,9.60
2019-04-25T00:22:43.677Z,9.70
2019-04-25T00:25:47.904Z,9.90
2019-04-25T00:28:35.955Z,9.70
2019-04-25T00:31:25.942Z,9.70
2019-04-25T00:34:16.408Z,9.50
2019-04-25T00:37:06.493Z,9.40
2019-04-25T00:39:54.353Z,9.30
2019-04-25T00:42:44.900Z,9.30
2019-04-25T00:45:32.346Z,9.40
2019-04-25T00:48:22.209Z,9.50
2019-04-25T00:51:11.726Z,9.60
2019-04-25T00:53:59.754Z,9.60
2019-04-25T00:56:48.323Z,9.40
2019-04-25T00:59:44.026Z,9.40
2019-04-25T01:02:40.159Z,9.30
2019-04-25T01:05:28.751Z,9.20
2019-04-25T01:08:16.887Z,9.00
2019-04-25T01:11:04.629Z,8.80
2019-04-25T01:13:53.470Z,8.70
2019-04-25T01:16:41.816Z,8.60
2019-04-25T01:19:30.021Z,8.50
2019-04-25T01:22:21.248Z,8.30
2019-04-25T01:25:15.491Z,8.30
2019-04-25T01:28:03.580Z,8.20
2019-04-25T01:30:52.077Z,8.20
2019-04-25T01:33:40.418Z,8.30
2019-04-25T01:36:51.365Z,8.20
2019-04-25T01:40:08.278Z,8.10
2019-04-25T01:43:19.181Z,8.00
2019-04-25T01:46:08.042Z,7.90
2019-04-25T01:48:56.520Z,7.90
2019-04-25T01:51:44.992Z,7.90
2019-04-25T01:54:33.931Z,8.00
2019-04-25T01:57:22.079Z,8.10
2019-04-25T02:00:13.964Z,8.10
2019-04-25T02:03:03.684Z,8.00
2019-04-25T02:05:53.368Z,7.90
2019-04-25T02:08:41.736Z,7.70
2019-04-25T02:11:56.803Z,7.70
2019-04-25T02:14:45.207Z,7.60
2019-04-25T02:17:35.727Z,7.50
2019-04-25T02:20:23.907Z,7.40
2019-04-25T02:23:14.017Z,7.40
2019-04-25T02:26:13.390Z,7.20
2019-04-25T02:28:54.805Z,7.10
2019-04-25T02:31:41.473Z,7.20
2019-04-25T02:34:30.963Z,7.30
2019-04-25T02:37:18.975Z,7.20
2019-04-25T02:40:08.984Z,7.20
2019-04-25T02:42:59.931Z,7.20
2019-04-25T02:46:10.804Z,7.20
2019-04-25T02:49:33.048Z,7.30
2019-04-25T02:52:28.168Z,7.30
2019-04-25T02:55:29.562Z,7.40
2019-04-25T02:58:11.578Z,7.30
2019-04-25T03:01:08.073Z,7.20
2019-04-25T03:03:49.661Z,7.30
2019-04-25T03:06:37.790Z,7.20
2019-04-25T03:09:26.174Z,7.20
2019-04-25T03:12:26.815Z,7.30
2019-04-25T03:15:06.674Z,7.20
2019-04-25T03:17:54.653Z,7.10
2019-04-25T03:21:17.256Z,6.80
2019-04-25T03:24:09.080Z,6.80
2019-04-25T03:26:53.297Z,6.70
2019-04-25T03:29:41.611Z,6.80
2019-04-25T03:32:29.573Z,6.80
2019-04-25T03:35:20.662Z,7.10
2019-04-25T03:38:12.593Z,7.20
2019-04-25T03:41:01.051Z,7.40
2019-04-25T03:43:49.042Z,7.60
2019-04-25T03:46:40.036Z,7.70
2019-04-25T03:49:28.335Z,7.80
2019-04-25T03:52:15.986Z,7.90
2019-04-25T03:55:14.436Z,8.00
2019-04-25T03:58:07.527Z,8.00
2019-04-25T04:00:52.130Z,8.10
2019-04-25T04:03:39.981Z,7.80
2019-04-25T04:06:27.720Z,6.80
2019-04-25T04:09:16.202Z,7.10
2019-04-25T04:12:05.168Z,6.90
2019-04-25T04:14:53.921Z,7.00
2019-04-25T04:18:00.686Z,7.10
2019-04-25T04:20:58.200Z,7.20
2019-04-25T04:23:57.505Z,7.40
2019-04-25T04:27:06.726Z,7.60
2019-04-25T04:29:54.351Z,7.80
2019-04-25T04:32:42.250Z,8.00
2019-04-25T04:35:30.182Z,8.10
2019-04-25T04:38:19.123Z,8.20
2019-04-25T04:41:07.978Z,8.30
2019-04-25T04:43:56.222Z,8.30
2019-04-25T04:46:44.015Z,8.30
2019-04-25T04:49:33.941Z,8.40
2019-04-25T04:52:23.482Z,8.40
2019-04-25T04:55:11.622Z,8.40
2019-04-25T04:58:04.232Z,8.50
2019-04-25T05:00:53.721Z,8.60
2019-04-25T05:04:04.011Z,8.70
2019-04-25T05:07:00.206Z,8.80
2019-04-25T05:09:48.406Z,8.90
2019-04-25T05:12:36.126Z,9.00
2019-04-25T05:15:24.907Z,9.10
2019-04-25T05:18:15.643Z,9.20
2019-04-25T05:21:04.301Z,9.30
2019-04-25T05:23:54.206Z,9.40
2019-04-25T05:26:41.685Z,9.50
2019-04-25T05:29:29.421Z,9.70
2019-04-25T05:32:17.263Z,9.60
2019-04-25T05:35:06.095Z,9.80
2019-04-25T05:37:54.178Z,9.90
2019-04-25T05:40:53.886Z,9.90
2019-04-25T05:43:43.644Z,10.00
2019-04-25T05:46:34.091Z,10.10
2019-04-25T05:49:21.344Z,10.20
2019-04-25T05:52:16.118Z,10.40
2019-04-25T05:55:06.947Z,10.50
2019-04-25T05:57:56.635Z,10.60
2019-04-25T06:00:49.125Z,10.70
2019-04-25T06:03:37.380Z,10.80
2019-04-25T06:06:26.800Z,11.00
2019-04-25T06:09:36.909Z,11.10
2019-04-25T06:12:39.030Z,11.30
2019-04-25T06:15:33.317Z,11.40
2019-04-25T06:18:28.639Z,11.50
2019-04-25T06:21:16.792Z,11.60
2019-04-25T06:24:25.760Z,11.80
2019-04-25T06:27:30.494Z,11.90
2019-04-25T06:30:27.867Z,12.00
2019-04-25T06:33:23.691Z,12.20
2019-04-25T06:36:11.424Z,12.40
2019-04-25T06:39:04.962Z,12.50
2019-04-25T06:41:54.048Z,12.70
2019-04-25T06:44:51.139Z,12.80
2019-04-25T06:48:06.592Z,13.00
2019-04-25T06:50:57.644Z,13.20
2019-04-25T06:53:45.578Z,13.40
2019-04-25T06:56:34.488Z,13.50
2019-04-25T06:59:27.430Z,13.70
2019-04-25T07:02:15.441Z,13.90
2019-04-25T07:05:08.009Z,14.10
2019-04-25T07:07:59.401Z,14.30
2019-04-25T07:10:51.491Z,14.60
2019-04-25T07:13:43.890Z,14.80
2019-04-25T07:16:33.482Z,15.00
2019-04-25T07:19:26.780Z,15.20
2019-04-25T07:22:15.580Z,15.40
2019-04-25T07:25:05.164Z,15.50
2019-04-25T07:28:23.298Z,15.80
2019-04-25T07:31:10.937Z,15.90
2019-04-25T07:34:04.626Z,16.20
2019-04-25T07:36:53.468Z,16.50
2019-04-25T07:39:41.392Z,16.70
2019-04-25T07:42:30.126Z,17.00
2019-04-25T07:45:20.519Z,17.20
2019-04-25T07:48:09.868Z,17.40
2019-04-25T07:50:57.527Z,17.60
2019-04-25T07:53:45.814Z,17.80
2019-04-25T07:56:34.976Z,18.10
2019-04-25T07:59:27.982Z,18.30
2019-04-25T08:02:16.797Z,18.80
2019-04-25T08:05:10.851Z,19.00
2019-04-25T08:07:58.870Z,19.20
2019-04-25T08:11:04.105Z,19.30
2019-04-25T08:14:04.497Z,19.50
2019-04-25T08:16:55.349Z,19.70
2019-04-25T08:19:44.223Z,19.60
2019-04-25T08:22:35.600Z,19.60
2019-04-25T08:25:23.513Z,19.70
2019-04-25T08:28:11.662Z,19.70
2019-04-25T08:30:59.396Z,20.10
2019-04-25T08:33:47.576Z,19.90
2019-04-25T08:36:37.070Z,19.90
2019-04-25T08:39:26.011Z,20.20
2019-04-25T08:42:14.772Z,20.50
2019-04-25T08:45:03.677Z,20.80
2019-04-25T08:47:53.678Z,20.90
2019-04-25T08:50:51.110Z,21.00
2019-04-25T08:53:45.884Z,21.10
2019-04-25T08:56:36.423Z,21.20
2019-04-25T08:59:58.695Z,21.20
2019-04-25T09:02:54.505Z,21.60
2019-04-25T09:05:50.133Z,21.70
2019-04-25T09:08:38.457Z,22.00
2019-04-25T09:11:28.022Z,22.20
2019-04-25T09:14:15.783Z,22.10
2019-04-25T09:17:05.399Z,21.40
2019-04-25T09:19:56.197Z,21.10
2019-04-25T09:22:44.579Z,20.90
2019-04-25T09:25:35.859Z,21.20
2019-04-25T09:28:23.917Z,21.30
2019-04-25T09:31:16.464Z,21.50
2019-04-25T09:34:05.055Z,21.40
2019-04-25T09:36:53.588Z,21.60
2019-04-25T09:40:10.354Z,21.50
2019-04-25T09:43:01.295Z,21.50
2019-04-25T09:46:26.857Z,21.60
2019-04-25T09:49:29.256Z,21.90
2019-04-25T09:52:20.968Z,21.80
2019-04-25T09:55:18.602Z,21.80
2019-04-25T09:58:15.108Z,22.00
2019-04-25T10:01:11.456Z,22.20
2019-04-25T10:04:02.727Z,22.30
2019-04-25T10:06:50.899Z,22.60
2019-04-25T10:09:40.699Z,22.70
2019-04-25T10:12:29.452Z,22.60
2019-04-25T10:15:37.987Z,21.90
2019-04-25T10:18:26.374Z,21.90
2019-04-25T10:21:16.827Z,21.40
2019-04-25T10:24:04.778Z,21.20
2019-04-25T10:26:56.528Z,21.50
2019-04-25T10:29:53.453Z,21.50
2019-04-25T10:32:39.935Z,21.50
2019-04-25T10:35:40.889Z,21.30
2019-04-25T10:38:22.066Z,21.50
2019-04-25T10:41:10.809Z,21.60
2019-04-25T10:43:58.575Z,21.40
2019-04-25T10:46:48.773Z,21.50
2019-04-25T10:49:39.816Z,21.50
2019-04-25T10:52:31.624Z,21.30
2019-04-25T10:55:19.528Z,21.60
2019-04-25T10:58:07.996Z,21.90
2019-04-25T11:00:55.910Z,22.50
2019-04-25T11:04:07.467Z,22.60
2019-04-25T11:06:56.284Z,22.80
2019-04-25T11:09:45.497Z,22.80
2019-04-25T11:12:36.334Z,22.50
2019-04-25T11:15:24.916Z,22.70
2019-04-25T11:18:15.161Z,22.60
2019-04-25T11:21:11.630Z,22.80
2019-04-25T11:24:00.163Z,22.80
2019-04-25T11:26:51.334Z,22.60
2019-04-25T11:29:43.215Z,22.70
2019-04-25T11:32:45.102Z,23.10
2019-04-25T11:35:37.529Z,23.20
2019-04-25T11:38:43.535Z,23.40
2019-04-25T11:41:34.150Z,22.80
2019-04-25T11:44:26.673Z,22.60
2019-04-25T11:47:22.391Z,22.60
2019-04-25T11:50:11.231Z,22.70
2019-04-25T11:53:03.371Z,22.50
2019-04-25T11:55:53.768Z,22.50
2019-04-25T11:58:42.581Z,22.40
2019-04-25T12:01:34.052Z,22.40
2019-04-25T12:04:24.715Z,22.30
2019-04-25T12:07:14.324Z,22.50
2019-04-25T12:10:03.723Z,22.40
2019-04-25T12:12:53.499Z,22.40
2019-04-25T12:15:46.085Z,22.50
2019-04-25T12:18:40.001Z,22.40
2019-04-25T12:21:30.356Z,22.60
2019-04-25T12:24:18.909Z,22.20
2019-04-25T12:27:06.762Z,22.10
2019-04-25T12:30:00.103Z,22.20
2019-04-25T12:32:49.963Z,22.10
2019-04-25T12:35:38.020Z,22.10
2019-04-25T12:38:26.098Z,21.90
2019-04-25T12:41:15.712Z,21.80
2019-04-25T12:44:19.942Z,21.90
2019-04-25T12:47:13.507Z,21.70
2019-04-25T12:50:04.042Z,21.70
2019-04-25T12:52:56.012Z,21.70
2019-04-25T12:55:44.490Z,21.60
2019-04-25T12:58:35.505Z,21.70
2019-04-25T13:01:24.833Z,21.80
2019-04-25T13:04:16.630Z,21.80
2019-04-25T13:07:05.333Z,21.80
2019-04-25T13:09:56.701Z,21.90
2019-04-25T13:12:45.363Z,21.80
2019-04-25T13:15:45.809Z,21.70
2019-04-25T13:18:38.112Z,21.60
2019-04-25T13:21:33.452Z,21.60
2019-04-25T13:24:23.904Z,21.60
2019-04-25T13:27:23.645Z,21.60
2019-04-25T13:30:29.925Z,21.50
2019-04-25T13:33:54.215Z,21.40
2019-04-25T13:36:44.282Z,21.50
2019-04-25T13:39:34.187Z,21.70
2019-04-25T13:42:23.316Z,21.70
2019-04-25T13:45:19.403Z,21.70
2019-04-25T13:48:10.388Z,21.90
2019-04-25T13:50:58.930Z,22.00
2019-04-25T13:53:46.860Z,22.00
2019-04-25T13:56:40.303Z,22.00
2019-04-25T13:59:28.354Z,22.00
2019-04-25T14:02:17.980Z,22.00
2019-04-25T14:05:09.880Z,22.10
2019-04-25T14:07:58.000Z,22.10
2019-04-25T14:10:47.473Z,22.10
2019-04-25T14:13:36.622Z,22.30
2019-04-25T14:16:56.020Z,22.20
2019-04-25T14:20:04.286Z,22.30
2019-04-25T14:22:54.284Z,22.20
2019-04-25T14:25:42.324Z,22.30
2019-04-25T14:28:31.783Z,22.30
2019-04-25T14:31:35.469Z,22.50
2019-04-25T14:34:13.790Z,22.50
2019-04-25T14:37:02.197Z,22.50
2019-04-25T14:39:56.631Z,22.70
2019-04-25T14:42:46.180Z,23.00
2019-04-25T14:45:44.314Z,23.00
2019-04-25T14:48:27.228Z,23.00
2019-04-25T14:51:16.286Z,22.90
2019-04-25T14:54:12.233Z,23.00
2019-04-25T14:57:08.253Z,22.90
2019-04-25T15:00:04.444Z,23.10
2019-04-25T15:02:59.482Z,23.30
2019-04-25T15:05:53.542Z,23.60
2019-04-25T15:08:56.396Z,24.00
2019-04-25T15:11:51.478Z,24.30
2019-04-25T15:14:42.802Z,24.20
2019-04-25T15:17:45.228Z,24.20
2019-04-25T15:20:30.167Z,24.10
2019-04-25T15:23:39.094Z,24.30
2019-04-25T15:26:40.364Z,24.40
2019-04-25T15:29:29.582Z,24.30
2019-04-25T15:32:21.029Z,24.10
2019-04-25T15:35:15.261Z,23.90
2019-04-25T15:38:21.580Z,23.80
2019-04-25T15:41:44.990Z,23.70
2019-04-25T15:45:05.098Z,23.40
2019-04-25T15:48:00.629Z,23.20
2019-04-25T15:50:51.513Z,22.90
2019-04-25T15:53:42.279Z,22.90
2019-04-25T15:56:33.416Z,23.00
2019-04-25T15:59:24.195Z,23.10
2019-04-25T16:02:14.736Z,22.80
2019-04-25T16:05:05.066Z,22.90
2019-04-25T16:07:56.146Z,22.90
2019-04-25T16:10:49.235Z,22.80
2019-04-25T16:13:40.871Z,22.70
2019-04-25T16:16:30.342Z,22.50
2019-04-25T16:19:27.218Z,22.30
2019-04-25T16:22:24.887Z,22.40
2019-04-25T16:25:16.437Z,22.40
2019-04-25T16:28:05.019Z,22.40
2019-04-25T16:30:56.184Z,22.40
2019-04-25T16:33:44.378Z,22.30
2019-04-25T16:36:32.675Z,22.10
2019-04-25T16:39:25.858Z,21.90
2019-04-25T16:42:14.093Z,21.90
2019-04-25T16:45:02.043Z,21.90
2019-04-25T16:47:50.030Z,21.70
2019-04-25T16:50:37.861Z,21.60
2019-04-25T16:53:25.831Z,21.50
2019-04-25T16:56:13.676Z,21.40
2019-04-25T16:59:01.439Z,21.30
2019-04-25T17:01:49.255Z,21.30
2019-04-25T17:04:37.545Z,21.10
2019-04-25T17:07:25.790Z,20.90
2019-04-25T17:10:13.632Z,20.80
2019-04-25T17:13:01.366Z,20.80
2019-04-25T17:16:11.490Z,20.80
2019-04-25T17:19:11.720Z,20.80
2019-04-25T17:21:59.825Z,20.60
2019-04-25T17:24:50.725Z,20.60
2019-04-25T17:27:39.159Z,20.40
2019-04-25T17:30:31.368Z,20.30
2019-04-25T17:33:47.600Z,20.20
2019-04-25T17:36:50.841Z,20.10
2019-04-25T17:39:40.356Z,20.10
2019-04-25T17:42:30.431Z,19.90
2019-04-25T17:45:23.145Z,19.70
2019-04-25T17:48:11.105Z,19.70
2019-04-25T17:50:59.074Z,19.60
2019-04-25T17:53:46.791Z,19.40
2019-04-25T17:56:34.538Z,19.40
2019-04-25T17:59:22.530Z,19.40
2019-04-25T18:02:10.025Z,19.30
2019-04-25T18:04:58.831Z,19.30
2019-04-25T18:07:47.022Z,19.20
2019-04-25T18:10:35.918Z,19.10
2019-04-25T18:13:23.622Z,19.10
2019-04-25T18:16:19.461Z,19.10
2019-04-25T18:19:38.578Z,19.10
2019-04-25T18:22:46.231Z,19.00
2019-04-25T18:25:52.335Z,19.00
2019-04-25T18:28:47.118Z,19.00
2019-04-25T18:31:41.966Z,18.90
2019-04-25T18:34:38.247Z,18.90
2019-04-25T18:37:48.803Z,18.90
2019-04-25T18:40:55.622Z,18.80
2019-04-25T18:44:03.306Z,18.80
2019-04-25T18:46:51.490Z,18.70
2019-04-25T18:49:40.633Z,18.60
2019-04-25T18:52:50.326Z,18.50
2019-04-25T18:55:59.812Z,18.40
2019-04-25T18:59:07.866Z,18.40
2019-04-25T19:02:14.745Z,18.40
2019-04-25T19:05:20.309Z,18.40
2019-04-25T19:08:08.616Z,18.30
2019-04-25T19:10:56.102Z,18.30
2019-04-25T19:13:43.817Z,18.30
2019-04-25T19:16:31.899Z,18.20
2019-04-25T19:19:19.901Z,18.20
2019-04-25T19:22:07.600Z,18.20
2019-04-25T19:24:56.630Z,18.20
2019-04-25T19:27:44.364Z,18.20
2019-04-25T19:30:32.267Z,18.10
2019-04-25T19:33:21.886Z,18.10
2019-04-25T19:36:09.694Z,18.00
2019-04-25T19:38:57.236Z,17.90
2019-04-25T19:41:51.832Z,17.80
2019-04-25T19:44:40.029Z,17.60
2019-04-25T19:47:29.055Z,17.50
2019-04-25T19:50:18.141Z,17.50
2019-04-25T19:53:05.901Z,17.50
2019-04-25T19:55:53.983Z,17.50
2019-04-25T19:58:42.168Z,17.50
2019-04-25T20:01:30.400Z,17.40
2019-04-25T20:04:31.078Z,17.40
2019-04-25T20:07:24.088Z,17.40
2019-04-25T20:10:33.256Z,17.30
2019-04-25T20:13:21.082Z,17.30
2019-04-25T20:16:08.644Z,17.20
2019-04-25T20:18:56.018Z,17.10
2019-04-25T20:21:44.403Z,17.10
2019-04-25T20:24:32.184Z,17.10
2019-04-25T20:27:19.635Z,17.00
2019-04-25T20:30:08.301Z,16.90
2019-04-25T20:32:55.978Z,16.90
2019-04-25T20:35:44.880Z,16.90
2019-04-25T20:38:33.234Z,16.90
2019-04-25T20:41:20.818Z,16.80
2019-04-25T20:44:08.830Z,16.70
2019-04-25T20:46:56.651Z,16.70
2019-04-25T20:49:44.397Z,16.60
2019-04-25T20:52:31.755Z,16.60
2019-04-25T20:55:19.633Z,16.60
2019-04-25T20:58:07.390Z,16.50
2019-04-25T21:00:57.988Z,16.50
2019-04-25T21:03:45.904Z,16.50
2019-04-25T21:06:36.485Z,16.50
2019-04-25T21:09:24.127Z,16.40
2019-04-25T21:12:11.778Z,16.40
2019-04-25T21:15:18.974Z,16.30
2019-04-25T21:18:14.723Z,16.20
2019-04-25T21:21:02.138Z,16.10
2019-04-25T21:23:50.663Z,16.00
2019-04-25T21:26:40.883Z,15.80
2019-04-25T21:29:29.093Z,15.70
2019-04-25T21:32:18.794Z,15.60
2019-04-25T21:35:06.635Z,15.50
2019-04-25T21:37:55.409Z,15.40
2019-04-25T21:41:02.344Z,15.40
2019-04-25T21:43:55.133Z,15.30
2019-04-25T21:46:44.548Z,15.20
2019-04-25T21:49:32.462Z,15.20
2019-04-25T21:52:20.514Z,15.00
2019-04-25T21:55:08.993Z,14.90
2019-04-25T21:57:58.076Z,14.80
2019-04-25T22:01:14.747Z,14.70
2019-04-25T22:04:02.947Z,14.60
2019-04-25T22:06:51.140Z,14.40
2019-04-25T22:09:39.386Z,14.30
2019-04-25T22:12:27.731Z,14.30
2019-04-25T22:15:15.961Z,14.20
2019-04-25T22:18:04.439Z,14.10
2019-04-25T22:20:52.866Z,14.00
2019-04-25T22:23:40.492Z,13.90
2019-04-25T22:26:28.253Z,13.80
2019-04-25T22:29:16.669Z,13.70
2019-04-25T22:32:12.494Z,13.60
2019-04-25T22:35:09.894Z,13.50
2019-04-25T22:37:58.663Z,13.40
2019-04-25T22:40:46.503Z,13.30
2019-04-25T22:43:36.153Z,13.30
2019-04-25T22:46:25.983Z,13.20
2019-04-25T22:49:13.859Z,13.20
2019-04-25T22:52:02.141Z,13.30
2019-04-25T22:54:50.830Z,13.30
2019-04-25T22:57:39.043Z,13.20
2019-04-25T23:00:32.313Z,13.10
2019-04-25T23:03:28.131Z,13.10
2019-04-25T23:06:15.469Z,13.00
2019-04-25T23:09:03.976Z,13.00
2019-04-25T23:11:51.285Z,13.00
2019-04-25T23:14:39.242Z,13.00
2019-04-25T23:17:26.559Z,13.00
2019-04-25T23:20:14.736Z,12.90
2019-04-25T23:23:04.164Z,12.80
2019-04-25T23:26:14.615Z,12.60
2019-04-25T23:29:04.655Z,12.50
2019-04-25T23:31:52.895Z,12.50
2019-04-25T23:34:40.919Z,12.50
2019-04-25T23:37:28.314Z,12.10
2019-04-25T23:40:15.900Z,12.10
2019-04-25T23:43:03.518Z,12.10
2019-04-25T23:45:51.479Z,12.00
2019-04-25T23:48:40.115Z,12.00
2019-04-25T23:51:27.658Z,11.90
2019-04-25T23:54:15.523Z,11.80
2019-04-25T23:57:03.527Z,11.80
2019-04-25T23:59:51.691Z,11.80
